createdAt,value
2017-12-08T00:00:57.987Z,7.20
2017-12-08T00:03:27.591Z,7.30
2017-12-08T00:05:57.197Z,7.30
2017-12-08T00:08:26.797Z,7.30
2017-12-08T00:10:55.630Z,7.20
2017-12-08T00:13:24.468Z,7.30
2017-12-08T00:15:53.307Z,7.30
2017-12-08T00:18:22.138Z,7.30
2017-12-08T00:20:51.002Z,7.30
2017-12-08T00:23:19.838Z,7.30
2017-12-08T00:25:48.687Z,7.30
2017-12-08T00:28:17.546Z,7.30
2017-12-08T00:30:47.152Z,7.40
2017-12-08T00:33:16.762Z,7.50
2017-12-08T00:35:46.710Z,7.60
2017-12-08T00:38:15.541Z,7.60
2017-12-08T00:40:44.373Z,8.00
2017-12-08T00:43:13.221Z,8.30
2017-12-08T00:45:42.062Z,8.50
2017-12-08T00:48:10.899Z,8.60
2017-12-08T00:50:39.725Z,8.70
2017-12-08T00:53:09.317Z,9.00
2017-12-08T00:55:38.905Z,9.10
2017-12-08T00:58:07.747Z,9.10
2017-12-08T01:00:36.576Z,9.10
2017-12-08T01:03:05.410Z,9.10
2017-12-08T01:05:35.029Z,9.00
2017-12-08T01:08:03.857Z,9.00
2017-12-08T01:10:32.680Z,9.00
2017-12-08T01:13:01.519Z,8.90
2017-12-08T01:15:30.351Z,8.80
2017-12-08T01:18:18.733Z,8.80
2017-12-08T01:20:47.569Z,8.70
2017-12-08T01:23:16.401Z,8.60
2017-12-08T01:25:51.230Z,8.30
2017-12-08T01:28:23.838Z,8.20
2017-12-08T01:30:52.720Z,8.20
2017-12-08T01:33:21.777Z,8.10
2017-12-08T01:35:50.603Z,8.00
2017-12-08T01:38:19.430Z,8.00
2017-12-08T01:40:48.282Z,7.90
2017-12-08T01:43:17.909Z,7.70
2017-12-08T01:45:46.458Z,7.70
2017-12-08T01:48:16.053Z,7.60
2017-12-08T01:50:44.891Z,7.60
2017-12-08T01:53:13.728Z,7.60
2017-12-08T01:55:42.554Z,7.60
2017-12-08T01:58:11.380Z,7.50
2017-12-08T02:00:39.599Z,7.50
2017-12-08T02:03:09.217Z,7.50
2017-12-08T02:05:38.809Z,7.50
2017-12-08T02:08:07.654Z,7.40
2017-12-08T02:10:36.180Z,7.40
2017-12-08T02:13:05.010Z,7.40
2017-12-08T02:15:33.537Z,7.40
2017-12-08T02:18:02.401Z,7.40
2017-12-08T02:20:30.931Z,7.40
2017-12-08T02:22:59.784Z,7.40
2017-12-08T02:25:28.978Z,7.30
2017-12-08T02:27:59.002Z,7.30
2017-12-08T02:30:28.532Z,7.30
2017-12-08T02:32:57.373Z,7.30
2017-12-08T02:35:26.214Z,7.20
2017-12-08T02:37:55.062Z,7.20
2017-12-08T02:40:23.899Z,7.30
2017-12-08T02:42:52.735Z,7.30
2017-12-08T02:45:21.589Z,7.30
2017-12-08T02:47:50.512Z,7.30
2017-12-08T02:50:19.031Z,7.30
2017-12-08T02:52:47.897Z,7.30
2017-12-08T02:55:16.724Z,7.20
2017-12-08T02:57:45.874Z,7.20
2017-12-08T03:00:15.277Z,7.20
2017-12-08T03:02:44.101Z,7.20
2017-12-08T03:05:12.928Z,7.20
2017-12-08T03:07:42.445Z,7.10
2017-12-08T03:10:12.112Z,7.10
2017-12-08T03:12:40.985Z,7.10
2017-12-08T03:15:09.829Z,7.10
2017-12-08T03:17:38.674Z,7.20
2017-12-08T03:20:07.509Z,7.20
2017-12-08T03:22:37.121Z,7.20
2017-12-08T03:25:06.729Z,7.20
2017-12-08T03:27:35.579Z,7.10
2017-12-08T03:30:04.122Z,7.10
2017-12-08T03:32:32.949Z,7.20
2017-12-08T03:35:01.792Z,7.20
2017-12-08T03:37:31.417Z,7.10
2017-12-08T03:40:00.924Z,7.10
2017-12-08T03:42:29.789Z,7.10
2017-12-08T03:44:59.389Z,7.10
2017-12-08T03:47:28.214Z,7.10
2017-12-08T03:49:57.065Z,7.10
2017-12-08T03:52:25.885Z,7.10
2017-12-08T03:54:55.485Z,7.10
2017-12-08T03:57:25.102Z,7.10
2017-12-08T03:59:54.696Z,7.10
2017-12-08T04:02:24.298Z,7.10
2017-12-08T04:04:53.161Z,7.10
2017-12-08T04:07:21.997Z,7.20
2017-12-08T04:09:51.640Z,7.10
2017-12-08T04:12:20.467Z,7.10
2017-12-08T04:14:49.293Z,7.10
2017-12-08T04:17:18.148Z,7.20
2017-12-08T04:19:46.975Z,7.20
2017-12-08T04:22:15.801Z,7.20
2017-12-08T04:24:44.633Z,7.20
2017-12-08T04:27:13.159Z,7.20
2017-12-08T04:29:42.392Z,7.20
2017-12-08T04:32:11.227Z,7.10
2017-12-08T04:34:40.064Z,7.10
2017-12-08T04:37:08.930Z,7.10
2017-12-08T04:39:37.754Z,7.20
2017-12-08T04:42:06.577Z,7.20
2017-12-08T04:44:36.198Z,7.20
2017-12-08T04:47:05.037Z,7.20
2017-12-08T04:49:33.553Z,7.20
2017-12-08T04:52:03.385Z,7.20
2017-12-08T04:54:32.999Z,7.20
2017-12-08T04:57:01.822Z,7.20
2017-12-08T04:59:30.685Z,7.30
2017-12-08T05:01:59.548Z,7.30
2017-12-08T05:04:28.386Z,7.30
2017-12-08T05:06:57.213Z,7.30
2017-12-08T05:09:26.050Z,7.30
2017-12-08T05:11:54.877Z,7.30
2017-12-08T05:14:23.831Z,7.30
2017-12-08T05:16:52.716Z,7.30
2017-12-08T05:19:21.576Z,7.40
2017-12-08T05:21:49.621Z,7.40
2017-12-08T05:24:19.115Z,7.40
2017-12-08T05:26:47.330Z,7.40
2017-12-08T05:29:16.255Z,7.40
2017-12-08T05:31:45.089Z,7.40
2017-12-08T05:34:13.916Z,7.40
2017-12-08T05:36:43.538Z,7.50
2017-12-08T05:39:13.203Z,7.50
2017-12-08T05:41:42.064Z,7.40
2017-12-08T05:44:10.893Z,7.50
2017-12-08T05:46:39.830Z,7.40
2017-12-08T05:49:08.688Z,7.40
2017-12-08T05:51:37.542Z,7.40
2017-12-08T05:54:06.112Z,7.40
2017-12-08T05:56:34.947Z,7.40
2017-12-08T05:59:03.774Z,7.40
2017-12-08T06:01:31.994Z,7.40
2017-12-08T06:04:00.589Z,7.40
2017-12-08T06:06:29.762Z,7.40
2017-12-08T06:08:59.358Z,7.40
2017-12-08T06:11:28.212Z,7.40
2017-12-08T06:13:57.058Z,7.40
2017-12-08T06:16:25.886Z,7.40
2017-12-08T06:18:55.534Z,7.40
2017-12-08T06:21:24.391Z,7.40
2017-12-08T06:23:54.026Z,7.50
2017-12-08T06:26:22.854Z,7.50
2017-12-08T06:28:51.682Z,7.40
2017-12-08T06:31:21.292Z,7.50
2017-12-08T06:33:50.891Z,7.50
2017-12-08T06:36:19.743Z,7.40
2017-12-08T06:38:48.565Z,7.40
2017-12-08T06:41:17.390Z,7.40
2017-12-08T06:43:46.226Z,7.50
2017-12-08T06:46:15.051Z,7.50
2017-12-08T06:48:44.641Z,7.40
2017-12-08T06:51:13.473Z,7.50
2017-12-08T06:53:42.289Z,7.40
2017-12-08T06:56:11.122Z,7.50
2017-12-08T06:58:39.954Z,7.60
2017-12-08T07:01:08.776Z,7.80
2017-12-08T07:03:37.602Z,7.90
2017-12-08T07:06:06.512Z,7.90
2017-12-08T07:08:35.350Z,7.90
2017-12-08T07:11:03.583Z,7.80
2017-12-08T07:13:32.129Z,7.70
2017-12-08T07:16:01.056Z,7.60
2017-12-08T07:18:29.894Z,7.50
2017-12-08T07:20:59.685Z,7.50
2017-12-08T07:23:29.093Z,7.40
2017-12-08T07:25:57.924Z,7.40
2017-12-08T07:28:26.618Z,7.40
2017-12-08T07:30:58.162Z,7.40
2017-12-08T07:33:26.995Z,7.30
2017-12-08T07:35:55.538Z,7.40
2017-12-08T07:38:24.374Z,7.30
2017-12-08T07:40:53.282Z,7.30
2017-12-08T07:43:22.129Z,7.30
2017-12-08T07:45:51.783Z,7.30
2017-12-08T07:48:20.653Z,7.30
2017-12-08T07:50:50.190Z,7.30
2017-12-08T07:53:19.018Z,7.30
2017-12-08T07:55:48.616Z,7.30
2017-12-08T07:58:17.454Z,7.30
2017-12-08T08:00:51.452Z,7.30
2017-12-08T08:03:20.283Z,7.30
2017-12-08T08:05:49.094Z,7.30
2017-12-08T08:08:18.621Z,7.30
2017-12-08T08:10:48.417Z,7.30
2017-12-08T08:13:17.246Z,7.20
2017-12-08T08:15:46.075Z,7.30
2017-12-08T08:18:14.836Z,7.30
2017-12-08T08:20:43.678Z,7.20
2017-12-08T08:23:12.538Z,7.20
2017-12-08T08:25:41.370Z,7.30
2017-12-08T08:28:11.621Z,7.20
2017-12-08T08:30:40.153Z,7.20
2017-12-08T08:33:08.983Z,7.30
2017-12-08T08:35:37.839Z,7.30
2017-12-08T08:38:06.689Z,7.30
2017-12-08T08:40:35.537Z,7.30
2017-12-08T08:43:04.822Z,7.20
2017-12-08T08:45:33.649Z,7.20
2017-12-08T08:48:02.469Z,7.20
2017-12-08T08:50:31.433Z,7.10
2017-12-08T08:53:00.279Z,7.10
2017-12-08T08:55:29.134Z,7.10
2017-12-08T08:57:58.005Z,7.00
2017-12-08T09:00:26.222Z,6.90
2017-12-08T09:02:55.083Z,6.80
2017-12-08T09:05:23.939Z,6.60
2017-12-08T09:07:52.817Z,6.50
2017-12-08T09:10:21.689Z,6.30
2017-12-08T09:12:50.505Z,6.20
2017-12-08T09:15:19.373Z,6.20
2017-12-08T09:17:48.237Z,6.10
2017-12-08T09:20:17.150Z,6.10
2017-12-08T09:22:45.973Z,6.10
2017-12-08T09:25:15.633Z,6.10
2017-12-08T09:27:44.495Z,6.10
2017-12-08T09:30:13.364Z,6.10
2017-12-08T09:32:42.975Z,6.10
2017-12-08T09:35:11.815Z,6.10
2017-12-08T09:37:40.650Z,6.20
2017-12-08T09:40:09.720Z,6.30
2017-12-08T09:42:38.582Z,6.30
2017-12-08T09:45:07.421Z,6.40
2017-12-08T09:47:36.294Z,6.50
2017-12-08T09:50:05.142Z,6.50
2017-12-08T09:52:34.002Z,6.60
2017-12-08T09:55:03.509Z,6.70
2017-12-08T09:57:32.390Z,6.70
2017-12-08T10:00:01.218Z,6.80
2017-12-08T10:02:30.037Z,6.80
2017-12-08T10:04:58.870Z,6.90
2017-12-08T10:07:27.703Z,6.90
2017-12-08T10:09:56.217Z,7.00
2017-12-08T10:12:25.050Z,7.10
2017-12-08T10:14:54.642Z,7.20
2017-12-08T10:17:23.196Z,7.30
2017-12-08T10:19:52.049Z,7.20
2017-12-08T10:22:23.453Z,7.30
2017-12-08T10:24:52.274Z,7.30
2017-12-08T10:27:21.885Z,7.40
2017-12-08T10:29:50.721Z,7.40
2017-12-08T10:32:19.570Z,7.40
2017-12-08T10:34:49.169Z,7.40
2017-12-08T10:37:18.780Z,7.40
2017-12-08T10:39:48.380Z,7.50
2017-12-08T10:42:17.226Z,7.50
2017-12-08T10:44:46.121Z,7.50
2017-12-08T10:47:14.989Z,7.50
2017-12-08T10:49:43.805Z,7.50
2017-12-08T10:52:12.656Z,7.50
2017-12-08T10:54:41.510Z,7.40
2017-12-08T10:57:10.441Z,7.40
2017-12-08T10:59:39.268Z,7.40
2017-12-08T11:02:07.806Z,7.40
2017-12-08T11:04:36.696Z,7.40
2017-12-08T11:07:05.713Z,7.40
2017-12-08T11:09:34.569Z,7.40
2017-12-08T11:12:04.394Z,7.40
2017-12-08T11:14:33.987Z,7.40
2017-12-08T11:17:03.598Z,7.50
2017-12-08T11:19:33.202Z,7.60
2017-12-08T11:22:02.810Z,7.70
2017-12-08T11:24:32.420Z,7.70
2017-12-08T11:27:01.034Z,7.70
2017-12-08T11:29:29.870Z,7.70
2017-12-08T11:31:58.697Z,7.70
2017-12-08T11:34:28.294Z,7.70
2017-12-08T11:36:57.137Z,7.70
2017-12-08T11:39:26.017Z,7.70
2017-12-08T11:41:55.642Z,7.80
2017-12-08T11:44:24.495Z,7.70
2017-12-08T11:46:54.109Z,7.40
2017-12-08T11:49:22.945Z,7.40
2017-12-08T11:51:52.538Z,6.30
2017-12-08T11:54:21.386Z,5.50
2017-12-08T11:56:50.987Z,4.90
2017-12-08T11:59:20.585Z,5.00
2017-12-08T12:01:49.421Z,4.90
2017-12-08T12:04:18.262Z,5.00
2017-12-08T12:06:47.086Z,5.10
2017-12-08T12:09:15.961Z,5.20
2017-12-08T12:11:45.553Z,5.30
2017-12-08T12:14:14.389Z,5.30
2017-12-08T12:16:43.226Z,5.40
2017-12-08T12:19:12.057Z,5.40
2017-12-08T12:21:40.891Z,5.40
2017-12-08T12:24:10.234Z,5.50
2017-12-08T12:26:39.831Z,5.60
2017-12-08T12:29:08.684Z,5.60
2017-12-08T12:31:37.514Z,5.70
2017-12-08T12:34:06.334Z,5.70
2017-12-08T12:36:35.155Z,5.60
2017-12-08T12:39:03.701Z,5.60
2017-12-08T12:41:33.290Z,5.60
2017-12-08T12:44:02.883Z,5.60
2017-12-08T12:46:31.714Z,5.60
2017-12-08T12:49:00.549Z,5.70
2017-12-08T12:51:28.753Z,5.70
2017-12-08T12:53:57.881Z,5.80
2017-12-08T12:56:26.737Z,5.80
2017-12-08T12:58:56.401Z,5.90
2017-12-08T13:01:25.225Z,5.80
2017-12-08T13:03:54.064Z,5.90
2017-12-08T13:06:22.898Z,5.90
2017-12-08T13:08:51.718Z,5.80
2017-12-08T13:11:21.326Z,5.80
2017-12-08T13:13:50.929Z,5.80
2017-12-08T13:16:20.522Z,5.80
2017-12-08T13:18:49.354Z,5.80
2017-12-08T13:21:18.186Z,5.70
2017-12-08T13:23:46.843Z,5.70
2017-12-08T13:26:15.719Z,5.70
2017-12-08T13:28:45.382Z,5.70
2017-12-08T13:31:14.211Z,5.70
2017-12-08T13:33:43.806Z,5.70
2017-12-08T13:36:13.398Z,5.60
2017-12-08T13:38:42.619Z,5.60
2017-12-08T13:41:12.210Z,5.60
2017-12-08T13:43:41.033Z,5.60
2017-12-08T13:46:09.870Z,5.60
2017-12-08T13:48:38.690Z,5.60
2017-12-08T13:51:07.517Z,5.60
2017-12-08T13:56:49.920Z,5.60
2017-12-08T13:59:19.510Z,5.50
2017-12-08T14:01:48.059Z,5.50
2017-12-08T14:04:17.181Z,5.50
2017-12-08T14:06:45.397Z,5.50
2017-12-08T14:09:14.249Z,5.40
2017-12-08T14:11:43.108Z,5.30
2017-12-08T14:14:11.988Z,5.30
2017-12-08T14:16:40.866Z,5.30
2017-12-08T14:19:09.694Z,5.20
2017-12-08T14:21:38.522Z,5.20
2017-12-08T14:24:08.129Z,5.20
2017-12-08T14:26:37.738Z,5.20
2017-12-08T14:29:06.566Z,5.20
2017-12-08T14:31:35.427Z,5.50
2017-12-08T14:34:05.102Z,7.20
2017-12-08T14:36:34.009Z,7.20
2017-12-08T14:39:03.839Z,7.90
2017-12-08T14:41:33.464Z,8.90
2017-12-08T14:44:03.481Z,9.50
2017-12-08T14:46:32.301Z,9.40
2017-12-08T14:49:01.402Z,9.20
2017-12-08T14:51:30.228Z,8.40
2017-12-08T14:54:00.242Z,7.80
2017-12-08T14:56:29.068Z,7.20
2017-12-08T14:58:59.287Z,6.30
2017-12-08T15:01:28.109Z,6.30
2017-12-08T15:03:56.938Z,6.10
2017-12-08T15:06:27.399Z,6.00
2017-12-08T15:08:56.229Z,5.80
2017-12-08T15:11:24.782Z,5.80
2017-12-08T15:13:53.627Z,5.70
2017-12-08T15:16:22.465Z,5.60
2017-12-08T15:18:54.182Z,5.30
2017-12-08T15:21:23.016Z,5.20
2017-12-08T15:23:51.868Z,5.00
2017-12-08T15:26:21.477Z,4.70
2017-12-08T15:28:50.365Z,4.70
2017-12-08T15:31:19.190Z,4.70
2017-12-08T15:33:48.047Z,4.60
2017-12-08T15:36:17.316Z,4.50
2017-12-08T15:38:46.165Z,4.50
2017-12-08T15:41:15.006Z,4.40
2017-12-08T15:43:43.860Z,4.40
2017-12-08T15:46:13.574Z,4.40
2017-12-08T15:48:41.832Z,4.50
2017-12-08T15:51:10.201Z,4.40
2017-12-08T15:53:39.178Z,4.40
2017-12-08T15:56:08.022Z,4.40
2017-12-08T15:58:36.858Z,4.40
2017-12-08T16:01:05.721Z,4.40
2017-12-08T16:03:34.602Z,4.40
2017-12-08T16:06:03.429Z,4.40
2017-12-08T16:08:32.270Z,4.40
2017-12-08T16:11:01.114Z,4.40
2017-12-08T16:13:29.965Z,4.50
2017-12-08T16:15:58.488Z,4.40
2017-12-08T16:18:27.313Z,4.50
2017-12-08T16:20:56.144Z,4.50
2017-12-08T16:23:24.852Z,4.60
2017-12-08T16:25:54.118Z,4.60
2017-12-08T16:28:23.283Z,4.70
2017-12-08T16:30:52.167Z,4.70
2017-12-08T16:33:21.772Z,4.60
2017-12-08T16:35:51.377Z,4.70
2017-12-08T16:38:20.345Z,4.70
2017-12-08T16:40:49.277Z,4.60
2017-12-08T16:43:18.888Z,4.70
2017-12-08T16:45:47.813Z,4.60
2017-12-08T16:48:16.652Z,4.60
2017-12-08T16:50:46.251Z,4.60
2017-12-08T16:53:15.081Z,4.60
2017-12-08T16:55:43.933Z,4.60
2017-12-08T16:58:12.702Z,4.60
2017-12-08T17:00:41.526Z,4.50
2017-12-08T17:03:11.126Z,4.50
2017-12-08T17:05:40.718Z,4.50
2017-12-08T17:08:09.537Z,4.50
2017-12-08T17:10:39.138Z,4.50
2017-12-08T17:13:08.737Z,4.50
2017-12-08T17:15:37.569Z,4.50
2017-12-08T17:18:06.391Z,4.50
2017-12-08T17:20:35.232Z,4.60
2017-12-08T17:23:04.066Z,4.50
2017-12-08T17:25:32.330Z,4.50
2017-12-08T17:28:02.106Z,4.60
2017-12-08T17:30:31.122Z,4.60
2017-12-08T17:33:00.047Z,4.60
2017-12-08T17:35:28.888Z,4.60
2017-12-08T17:37:57.719Z,4.60
2017-12-08T17:40:26.553Z,4.60
2017-12-08T17:42:56.150Z,4.60
2017-12-08T17:45:24.984Z,4.60
2017-12-08T17:47:53.838Z,4.50
2017-12-08T17:50:23.441Z,4.50
2017-12-08T17:52:52.255Z,4.50
2017-12-08T17:55:21.086Z,4.40
2017-12-08T17:57:49.936Z,4.40
2017-12-08T18:00:18.788Z,4.40
2017-12-08T18:02:47.601Z,4.40
2017-12-08T18:05:17.216Z,4.50
2017-12-08T18:07:46.826Z,4.40
2017-12-08T18:10:16.449Z,4.40
2017-12-08T18:12:46.104Z,4.40
2017-12-08T18:15:15.241Z,4.40
2017-12-08T18:17:43.506Z,4.40
2017-12-08T18:20:11.704Z,4.40
2017-12-08T18:22:40.529Z,4.30
2017-12-08T18:25:09.378Z,4.30
2017-12-08T18:27:38.972Z,4.30
2017-12-08T18:30:08.397Z,4.30
2017-12-08T18:32:37.233Z,4.30
2017-12-08T18:35:06.078Z,4.30
2017-12-08T18:37:34.903Z,4.20
2017-12-08T18:40:03.753Z,4.20
2017-12-08T18:42:32.601Z,4.20
2017-12-08T18:45:01.438Z,4.20
2017-12-08T18:47:30.230Z,4.20
2017-12-08T18:49:59.052Z,4.20
2017-12-08T18:52:27.869Z,4.20
2017-12-08T18:54:56.803Z,4.20
2017-12-08T18:57:25.641Z,4.20
2017-12-08T18:59:54.473Z,4.10
2017-12-08T19:02:24.061Z,3.90
2017-12-08T19:04:53.913Z,3.90
2017-12-08T19:07:23.357Z,3.70
2017-12-08T19:09:52.202Z,3.40
2017-12-08T19:15:04.234Z,3.20
2017-12-08T19:17:33.060Z,3.20
2017-12-08T19:23:05.185Z,3.10
2017-12-08T19:25:34.156Z,3.10
2017-12-08T19:28:03.017Z,3.10
2017-12-08T19:30:32.217Z,3.10
2017-12-08T20:22:41.665Z,3.00
2017-12-08T20:25:10.505Z,3.00
2017-12-08T20:27:39.332Z,3.00
2017-12-08T20:30:08.934Z,3.00
2017-12-08T20:32:37.773Z,3.00
2017-12-08T20:35:06.601Z,3.00
2017-12-08T20:37:36.049Z,3.00
2017-12-08T20:40:04.877Z,3.00
2017-12-08T20:42:33.705Z,3.00
2017-12-08T20:45:03.603Z,3.00
2017-12-08T20:47:32.438Z,3.00
2017-12-08T20:50:01.267Z,3.00
2017-12-08T20:52:30.113Z,3.00
2017-12-08T20:54:58.937Z,3.00
2017-12-08T22:22:26.156Z,2.90
2017-12-08T22:24:54.978Z,2.80
2017-12-08T22:27:23.811Z,2.90
2017-12-08T22:29:52.638Z,2.90
2017-12-08T22:32:21.477Z,2.90
2017-12-08T22:34:50.370Z,2.90
2017-12-08T22:37:19.201Z,2.90
2017-12-08T22:39:48.061Z,2.90
2017-12-08T22:42:17.688Z,3.00
2017-12-08T22:44:47.278Z,3.00
2017-12-08T22:47:16.122Z,3.00
2017-12-08T22:49:44.938Z,3.00
2017-12-08T22:52:13.763Z,3.00
2017-12-08T22:54:42.598Z,2.90
2017-12-08T22:57:11.441Z,2.90
2017-12-08T22:59:41.031Z,2.90
2017-12-08T23:02:09.893Z,2.90
2017-12-08T23:04:38.728Z,3.00
2017-12-08T23:07:08.344Z,2.90
2017-12-08T23:09:37.932Z,2.90
2017-12-08T23:12:06.797Z,2.90
2017-12-08T23:14:35.630Z,2.90
2017-12-08T23:17:04.914Z,2.90
2017-12-08T23:19:33.761Z,2.90
2017-12-08T23:22:02.630Z,2.90
2017-12-08T23:24:32.224Z,2.80
2017-12-08T23:27:01.817Z,2.90
2017-12-08T23:29:30.649Z,2.90
2017-12-08T23:31:59.482Z,2.90
2017-12-08T23:34:28.321Z,2.90
2017-12-08T23:36:57.163Z,2.90
2017-12-08T23:39:31.345Z,2.90
2017-12-08T23:42:00.205Z,2.90
2017-12-08T23:44:29.878Z,2.80
2017-12-08T23:46:58.700Z,2.80
2017-12-08T23:49:28.289Z,2.70
2017-12-08T23:51:57.125Z,2.70
2017-12-08T23:54:25.946Z,2.60
2017-12-08T23:56:54.765Z,2.60
2017-12-08T23:59:23.582Z,2.50
